Time;durP1;ratioP1;P1;durP2;ratioP2;P2;SDS_P1;SDS_P2;PMS_P1;PMS_P2;Temp;Humidity;BMP_temperature;BMP_pressure;BME280_temperature;BME280_humidity;BME280_pressure;Samples;Min_cycle;Max_cycle;Signal;HPM_P1;HPM_P2
2021/09/05 00:01:11;;;;;;;22.10;11.57;;;14.40;99.90;;;;;;5014835;28;20032;-78
2021/09/05 00:03:37;;;;;;;21.65;11.98;;;14.30;99.90;;;;;;5014309;28;20030;-78
2021/09/05 00:06:02;;;;;;;19.83;11.27;;;14.30;99.90;;;;;;5014277;28;20021;-78
2021/09/05 00:08:28;;;;;;;21.52;11.70;;;14.30;99.90;;;;;;5014597;28;20034;-79
2021/09/05 00:10:54;;;;;;;15.18;10.68;;;14.20;99.90;;;;;;5014680;28;20022;-79
2021/09/05 00:13:19;;;;;;;20.15;11.27;;;14.20;99.90;;;;;;5013973;28;20481;-79
2021/09/05 00:15:45;;;;;;;18.45;12.38;;;14.20;99.90;;;;;;5014572;28;20057;-79
2021/09/05 00:18:10;;;;;;;21.08;12.27;;;14.10;99.90;;;;;;5015070;28;20073;-78
2021/09/05 00:20:36;;;;;;;25.40;11.60;;;14.10;99.90;;;;;;5015290;28;20051;-78
2021/09/05 00:23:03;;;;;;;14.55;10.95;;;14.00;99.90;;;;;;5014875;28;20018;-78
2021/09/05 00:25:30;;;;;;;20.40;12.02;;;14.00;99.90;;;;;;5013890;28;20048;-78
2021/09/05 00:27:56;;;;;;;18.00;12.15;;;14.00;99.90;;;;;;5014403;28;20034;-78
2021/09/05 00:30:22;;;;;;;19.27;10.80;;;14.00;99.90;;;;;;5016883;28;20018;-78
2021/09/05 00:32:47;;;;;;;19.17;11.13;;;13.90;99.90;;;;;;5015227;28;20041;-78
2021/09/05 00:35:14;;;;;;;18.40;10.70;;;13.90;99.90;;;;;;5014564;28;20022;-80
2021/09/05 00:37:40;;;;;;;25.50;11.38;;;13.90;99.90;;;;;;5014691;28;20042;-78
2021/09/05 00:40:06;;;;;;;17.30;11.90;;;13.90;99.90;;;;;;5013927;28;20109;-78
2021/09/05 00:42:32;;;;;;;21.77;12.07;;;13.90;99.90;;;;;;5013751;28;20022;-79
2021/09/05 00:44:58;;;;;;;24.23;12.48;;;13.80;99.90;;;;;;5013870;28;20029;-79
2021/09/05 00:47:23;;;;;;;20.50;11.63;;;13.80;99.90;;;;;;5013130;28;20014;-78
2021/09/05 00:49:49;;;;;;;20.10;11.57;;;13.80;99.90;;;;;;5013457;28;20104;-80
2021/09/05 00:52:15;;;;;;;17.38;11.45;;;13.80;99.90;;;;;;5013367;28;20124;-79
2021/09/05 00:54:42;;;;;;;22.50;12.13;;;13.70;99.90;;;;;;5013046;28;20109;-79
2021/09/05 00:57:16;;;;;;;15.50;11.02;;;13.80;99.90;;;;;;5006971;28;20038;-81
2021/09/05 00:59:44;;;;;;;16.50;11.73;;;13.70;99.90;;;;;;5013448;28;20076;-80
2021/09/05 01:02:10;;;;;;;18.23;11.35;;;13.70;99.90;;;;;;5011092;28;20470;-80
2021/09/05 01:04:36;;;;;;;16.08;11.85;;;13.70;99.90;;;;;;5013424;28;20044;-79
2021/09/05 01:07:03;;;;;;;20.98;12.68;;;13.70;99.90;;;;;;5014060;28;20022;-79
2021/09/05 01:09:29;;;;;;;21.38;11.43;;;13.70;99.90;;;;;;5012655;28;20481;-78
2021/09/05 01:11:56;;;;;;;16.90;11.38;;;13.60;99.90;;;;;;5013869;28;20505;-80
2021/09/05 01:14:22;;;;;;;16.75;11.40;;;13.60;99.90;;;;;;5013415;28;20022;-79
2021/09/05 01:16:48;;;;;;;15.13;11.02;;;13.60;99.90;;;;;;5012617;28;20026;-78
2021/09/05 01:19:16;;;;;;;21.38;11.48;;;13.50;99.90;;;;;;5013518;28;20049;-78
2021/09/05 01:21:44;;;;;;;17.02;11.95;;;13.60;99.90;;;;;;5012202;28;20021;-79
2021/09/05 01:24:11;;;;;;;18.10;11.02;;;13.50;99.90;;;;;;5013232;28;20478;-79
2021/09/05 01:26:39;;;;;;;16.65;10.80;;;13.40;99.90;;;;;;5013143;28;20043;-79
2021/09/05 01:29:06;;;;;;;21.10;12.48;;;13.50;99.90;;;;;;5012553;28;20415;-80
2021/09/05 01:31:41;;;;;;;17.80;11.63;;;13.40;99.90;;;;;;5012614;28;20026;-79
2021/09/05 01:34:08;;;;;;;18.80;12.02;;;13.40;99.90;;;;;;5000474;28;20044;-79
2021/09/05 01:36:35;;;;;;;17.67;12.32;;;13.30;99.90;;;;;;5012235;28;20112;-79
2021/09/05 01:39:01;;;;;;;16.35;12.25;;;13.30;99.90;;;;;;5012889;28;20022;-79
2021/09/05 01:41:27;;;;;;;22.80;13.80;;;13.30;99.90;;;;;;5012276;28;20072;-80
2021/09/05 01:43:59;;;;;;;20.95;12.80;;;13.20;99.90;;;;;;5011461;28;20405;-79
2021/09/05 01:46:25;;;;;;;19.83;11.45;;;13.20;99.90;;;;;;5012210;28;20625;-80
2021/09/05 01:48:50;;;;;;;21.48;12.73;;;13.40;99.90;;;;;;5011753;28;20121;-79
2021/09/05 01:51:16;;;;;;;21.83;11.95;;;13.20;99.90;;;;;;5011583;28;20030;-80
2021/09/05 01:53:42;;;;;;;21.33;13.10;;;13.20;99.90;;;;;;5012316;28;20113;-79
2021/09/05 01:56:07;;;;;;;18.35;11.25;;;13.20;99.90;;;;;;5012418;28;20056;-79
2021/09/05 01:58:33;;;;;;;25.73;12.23;;;13.20;99.90;;;;;;5011529;28;20029;-79
2021/09/05 02:00:59;;;;;;;18.75;11.90;;;13.10;99.90;;;;;;5011929;28;20014;-78
2021/09/05 02:03:24;;;;;;;20.95;12.07;;;13.10;99.90;;;;;;5012101;28;20181;-78
2021/09/05 02:05:50;;;;;;;19.08;11.63;;;13.10;99.90;;;;;;5011568;28;20146;-78
2021/09/05 02:08:15;;;;;;;22.65;12.73;;;13.10;99.90;;;;;;5010711;28;20117;-78
2021/09/05 02:10:41;;;;;;;19.15;11.90;;;13.00;99.90;;;;;;5011516;28;20022;-77
2021/09/05 02:13:07;;;;;;;20.42;12.45;;;13.00;99.90;;;;;;5011705;28;20080;-78
2021/09/05 02:15:32;;;;;;;23.65;12.75;;;13.00;99.90;;;;;;5012281;28;20021;-78
2021/09/05 02:17:58;;;;;;;18.27;12.55;;;12.90;99.90;;;;;;5011633;28;20562;-77
2021/09/05 02:20:23;;;;;;;20.65;12.02;;;12.90;99.90;;;;;;5012436;28;20021;-79
2021/09/05 02:22:49;;;;;;;16.83;11.35;;;12.90;99.90;;;;;;5012199;28;20099;-80
2021/09/05 02:25:15;;;;;;;17.58;12.32;;;12.90;99.90;;;;;;5011760;28;20014;-78
2021/09/05 02:27:41;;;;;;;22.73;12.32;;;12.90;99.90;;;;;;5012521;28;20073;-78
2021/09/05 02:30:09;;;;;;;22.73;12.18;;;12.90;99.90;;;;;;5012765;28;20076;-78
2021/09/05 02:32:35;;;;;;;21.48;12.77;;;12.80;99.90;;;;;;5011674;28;20397;-78
2021/09/05 02:35:00;;;;;;;23.13;11.90;;;12.80;99.90;;;;;;5012137;28;20026;-77
2021/09/05 02:37:26;;;;;;;21.58;12.55;;;12.80;99.90;;;;;;5012434;28;20018;-79
2021/09/05 02:39:51;;;;;;;22.42;13.23;;;12.80;99.90;;;;;;5011948;28;20108;-80
2021/09/05 02:42:17;;;;;;;21.50;12.93;;;12.80;99.90;;;;;;5012919;28;20022;-78
2021/09/05 02:44:43;;;;;;;21.08;13.18;;;12.80;99.90;;;;;;5012628;28;20088;-78
2021/09/05 02:47:08;;;;;;;21.45;12.45;;;12.70;99.90;;;;;;5011569;28;20022;-80
2021/09/05 02:49:34;;;;;;;20.63;12.85;;;12.70;99.90;;;;;;5011746;28;20046;-80
2021/09/05 02:52:00;;;;;;;18.88;11.63;;;12.70;99.90;;;;;;5000174;28;20033;-78
2021/09/05 02:54:25;;;;;;;19.73;11.93;;;12.70;99.90;;;;;;5011499;28;20157;-79
2021/09/05 02:56:51;;;;;;;18.08;12.40;;;12.70;99.90;;;;;;5011767;28;20041;-78
2021/09/05 02:59:16;;;;;;;27.23;13.70;;;12.60;99.90;;;;;;5012190;28;20387;-78
2021/09/05 03:01:42;;;;;;;18.35;11.45;;;12.70;99.90;;;;;;5011059;28;20097;-80
2021/09/05 03:04:08;;;;;;;19.05;12.20;;;12.70;99.90;;;;;;5010632;28;20026;-78
2021/09/05 03:06:33;;;;;;;20.77;12.75;;;12.60;99.90;;;;;;4999241;28;20057;-78
2021/09/05 03:08:59;;;;;;;20.73;12.48;;;12.60;99.90;;;;;;5011283;28;20026;-77
2021/09/05 03:11:24;;;;;;;20.13;12.75;;;12.60;99.90;;;;;;5012023;28;20113;-78
2021/09/05 03:13:50;;;;;;;23.20;13.27;;;12.60;99.90;;;;;;5011812;28;20600;-78
2021/09/05 03:16:16;;;;;;;30.45;13.80;;;12.60;99.90;;;;;;5011470;28;20021;-78
2021/09/05 03:18:41;;;;;;;25.00;14.27;;;12.60;99.90;;;;;;5011812;28;20061;-78
2021/09/05 03:21:07;;;;;;;24.85;13.57;;;12.60;99.90;;;;;;5011592;28;20018;-78
2021/09/05 03:23:32;;;;;;;26.65;13.38;;;12.50;99.90;;;;;;5011174;28;20033;-79
2021/09/05 03:25:58;;;;;;;22.65;12.82;;;12.50;99.90;;;;;;5013178;28;20025;-80
2021/09/05 03:28:24;;;;;;;28.27;12.90;;;12.50;99.90;;;;;;5015001;28;20022;-79
2021/09/05 03:30:49;;;;;;;23.13;14.45;;;12.50;99.90;;;;;;5015527;28;20121;-78
2021/09/05 03:33:15;;;;;;;20.23;13.43;;;12.50;99.90;;;;;;5015304;28;20029;-80
2021/09/05 03:35:40;;;;;;;21.52;12.43;;;12.50;99.90;;;;;;5014751;28;20152;-79
2021/09/05 03:38:06;;;;;;;27.55;13.80;;;12.50;99.90;;;;;;5015015;28;20501;-80
2021/09/05 03:40:32;;;;;;;25.83;13.98;;;12.50;99.90;;;;;;5016300;28;20022;-79
2021/09/05 03:42:57;;;;;;;22.73;13.05;;;12.50;99.90;;;;;;5017049;28;20045;-79
2021/09/05 03:45:23;;;;;;;24.50;13.25;;;12.50;99.90;;;;;;5017541;28;20034;-80
2021/09/05 03:47:48;;;;;;;22.88;13.50;;;12.50;99.90;;;;;;5018247;28;20068;-80
2021/09/05 03:50:14;;;;;;;23.20;13.80;;;12.50;99.90;;;;;;5015373;28;20041;-79
2021/09/05 03:52:39;;;;;;;24.63;12.50;;;12.40;99.90;;;;;;5014560;28;20099;-79
2021/09/05 03:55:06;;;;;;;26.40;13.40;;;12.40;99.90;;;;;;5015102;28;20026;-79
2021/09/05 03:57:31;;;;;;;22.77;13.25;;;12.40;99.90;;;;;;5014174;28;20093;-78
2021/09/05 03:59:57;;;;;;;21.25;11.77;;;12.40;99.90;;;;;;5015955;28;20109;-79
2021/09/05 04:02:23;;;;;;;25.65;12.98;;;12.30;99.90;;;;;;5015428;28;20052;-77
2021/09/05 04:04:48;;;;;;;28.85;14.15;;;12.30;99.90;;;;;;5014177;28;20018;-80
2021/09/05 04:07:17;;;;;;;20.75;12.60;;;12.30;99.90;;;;;;5015014;28;20076;-78
2021/09/05 04:12:27;;;;;;;25.73;13.75;;;12.30;99.90;;;;;;5014204;28;20044;-78
2021/09/05 04:14:53;;;;;;;22.52;12.18;;;12.30;99.90;;;;;;5014398;28;20018;-79
2021/09/05 04:17:19;;;;;;;24.58;13.15;;;12.30;99.90;;;;;;5014390;28;20029;-78
2021/09/05 04:19:44;;;;;;;21.90;13.98;;;12.30;99.90;;;;;;5013614;28;20073;-78
2021/09/05 04:22:10;;;;;;;25.45;13.05;;;12.20;99.90;;;;;;5014754;28;20028;-78
2021/09/05 04:24:36;;;;;;;24.48;12.73;;;12.20;99.90;;;;;;5013559;28;20054;-79
2021/09/05 04:27:02;;;;;;;20.95;13.52;;;12.20;99.90;;;;;;5015700;28;20113;-78
2021/09/05 04:29:27;;;;;;;22.48;12.82;;;12.20;99.90;;;;;;5014159;28;20022;-79
2021/09/05 04:31:53;;;;;;;19.85;12.27;;;12.20;99.90;;;;;;5013455;28;20045;-80
2021/09/05 04:34:19;;;;;;;22.83;13.43;;;12.20;99.90;;;;;;5014420;28;20026;-78
2021/09/05 04:36:44;;;;;;;26.83;12.65;;;12.20;99.90;;;;;;5014107;28;20382;-78
2021/09/05 04:39:10;;;;;;;24.98;12.05;;;12.20;99.90;;;;;;5013584;28;20028;-78
2021/09/05 04:41:36;;;;;;;22.25;13.10;;;12.10;99.90;;;;;;5014023;28;20014;-78
2021/09/05 04:44:02;;;;;;;31.98;14.10;;;12.10;99.90;;;;;;5013793;28;20120;-80
2021/09/05 04:46:27;;;;;;;24.88;13.43;;;12.10;99.90;;;;;;5013034;28;20500;-79
2021/09/05 04:48:53;;;;;;;27.13;13.20;;;12.10;99.90;;;;;;5012983;28;20062;-78
2021/09/05 04:51:18;;;;;;;24.67;11.80;;;12.00;99.90;;;;;;5014503;28;20061;-79
2021/09/05 04:53:44;;;;;;;25.38;12.60;;;12.00;99.90;;;;;;5013183;28;20033;-79
2021/09/05 04:56:09;;;;;;;25.13;13.13;;;12.00;99.90;;;;;;5013899;28;20593;-79
2021/09/05 04:58:35;;;;;;;22.45;13.00;;;12.00;99.90;;;;;;5013326;28;20403;-79
2021/09/05 05:01:00;;;;;;;23.00;13.07;;;11.90;99.90;;;;;;5013035;28;20026;-78
2021/09/05 05:03:26;;;;;;;25.83;13.20;;;11.90;99.90;;;;;;5013150;28;20026;-79
2021/09/05 05:05:52;;;;;;;21.02;12.00;;;11.90;99.90;;;;;;5013443;28;20060;-78
2021/09/05 05:08:17;;;;;;;22.30;12.57;;;11.90;99.90;;;;;;5012949;28;20036;-78
2021/09/05 05:10:45;;;;;;;23.30;13.32;;;11.90;99.90;;;;;;5013063;28;20030;-79
2021/09/05 05:13:10;;;;;;;21.42;12.60;;;11.90;99.90;;;;;;5013220;28;20124;-78
2021/09/05 05:15:36;;;;;;;27.58;14.18;;;11.90;99.90;;;;;;5012732;28;20097;-79
2021/09/05 05:18:04;;;;;;;21.88;12.40;;;11.90;99.90;;;;;;5013304;28;20065;-78
2021/09/05 05:20:30;;;;;;;24.00;13.00;;;11.90;99.90;;;;;;5013047;28;20048;-78
2021/09/05 05:22:56;;;;;;;30.27;14.38;;;11.90;99.90;;;;;;5016392;28;20474;-79
2021/09/05 05:25:21;;;;;;;24.13;13.57;;;11.90;99.90;;;;;;5012790;28;20033;-79
2021/09/05 05:27:47;;;;;;;22.23;12.02;;;11.90;99.90;;;;;;5004935;28;20035;-78
2021/09/05 05:30:12;;;;;;;24.38;12.98;;;11.90;99.90;;;;;;4995648;28;20080;-80
2021/09/05 05:32:38;;;;;;;20.80;12.82;;;11.90;99.90;;;;;;4998123;28;20034;-78
2021/09/05 05:35:04;;;;;;;26.25;13.02;;;12.00;99.90;;;;;;4993721;28;20023;-79
2021/09/05 05:37:30;;;;;;;18.83;12.80;;;12.00;99.90;;;;;;4997749;28;20025;-79
2021/09/05 05:39:56;;;;;;;19.60;13.07;;;12.00;99.90;;;;;;4996669;28;20022;-78
2021/09/05 05:42:22;;;;;;;23.23;13.60;;;12.10;99.90;;;;;;4994565;28;20033;-80
2021/09/05 05:44:47;;;;;;;21.90;12.77;;;12.10;99.90;;;;;;4996667;28;20370;-80
2021/09/05 05:47:13;;;;;;;25.08;12.80;;;12.20;99.90;;;;;;4993571;28;20470;-78
2021/09/05 05:49:46;;;;;;;26.60;13.30;;;12.20;99.90;;;;;;4991737;28;20038;-79
2021/09/05 05:52:12;;;;;;;17.67;12.13;;;12.20;99.90;;;;;;4997602;28;20034;-79
2021/09/05 05:54:38;;;;;;;19.35;12.50;;;12.30;99.90;;;;;;4997471;28;20029;-78
2021/09/05 05:57:03;;;;;;;20.90;12.48;;;12.30;99.90;;;;;;4997550;28;20022;-78
2021/09/05 05:59:29;;;;;;;25.33;13.05;;;12.30;99.90;;;;;;4996341;28;20026;-78
2021/09/05 06:01:54;;;;;;;19.35;12.40;;;12.40;99.90;;;;;;4998957;28;20029;-79
2021/09/05 06:04:20;;;;;;;21.17;12.35;;;12.40;99.90;;;;;;4998285;28;20396;-78
2021/09/05 06:06:45;;;;;;;25.98;13.20;;;12.40;99.90;;;;;;4994708;28;20049;-78
2021/09/05 06:09:11;;;;;;;28.40;13.18;;;12.40;99.90;;;;;;4997578;28;20306;-79
2021/09/05 06:11:36;;;;;;;24.15;12.55;;;12.50;99.90;;;;;;5007346;28;20048;-79
2021/09/05 06:14:02;;;;;;;22.88;12.70;;;12.50;99.90;;;;;;5011326;28;20029;-79
2021/09/05 06:16:28;;;;;;;18.33;11.50;;;12.50;99.90;;;;;;5008358;28;20057;-78
2021/09/05 06:18:54;;;;;;;29.45;12.80;;;12.60;99.90;;;;;;5010970;28;20056;-80
2021/09/05 06:21:20;;;;;;;19.38;11.77;;;12.60;99.90;;;;;;5011381;28;20057;-79
2021/09/05 06:23:45;;;;;;;23.25;12.18;;;12.70;99.90;;;;;;5011015;28;20033;-80
2021/09/05 06:26:11;;;;;;;19.58;12.70;;;12.70;99.90;;;;;;5002536;28;20030;-80
2021/09/05 06:28:36;;;;;;;21.00;12.38;;;12.80;99.90;;;;;;5005208;28;20105;-78
2021/09/05 06:31:02;;;;;;;18.92;12.32;;;12.80;99.90;;;;;;5010023;28;20057;-79
2021/09/05 06:33:28;;;;;;;23.40;12.35;;;12.80;99.90;;;;;;5010447;28;20109;-78
2021/09/05 06:35:53;;;;;;;24.98;12.73;;;13.00;99.90;;;;;;5010369;28;20026;-76
2021/09/05 06:38:19;;;;;;;21.17;12.20;;;13.00;99.90;;;;;;5010352;28;20483;-76
2021/09/05 06:40:44;;;;;;;19.00;11.23;;;13.00;99.90;;;;;;5010829;28;20026;-76
2021/09/05 06:43:11;;;;;;;19.02;11.73;;;13.10;99.90;;;;;;5011553;28;20101;-76
2021/09/05 06:45:36;;;;;;;25.67;13.18;;;13.20;99.90;;;;;;5010101;28;20030;-75
2021/09/05 06:48:03;;;;;;;28.13;13.27;;;13.30;99.90;;;;;;5009669;28;20029;-76
2021/09/05 06:50:28;;;;;;;20.02;12.50;;;13.30;99.90;;;;;;5010891;28;20058;-76
2021/09/05 06:52:54;;;;;;;27.73;13.18;;;13.40;99.90;;;;;;5011456;28;20137;-76
2021/09/05 06:55:20;;;;;;;21.27;12.95;;;13.40;99.90;;;;;;5012012;28;20485;-76
2021/09/05 06:57:45;;;;;;;18.88;12.73;;;13.50;99.90;;;;;;5011916;28;20482;-76
2021/09/05 07:00:11;;;;;;;21.83;11.90;;;13.60;99.90;;;;;;5010983;28;20105;-76
2021/09/05 07:02:37;;;;;;;28.30;13.05;;;13.60;99.90;;;;;;5015666;28;20565;-75
2021/09/05 07:05:03;;;;;;;21.70;12.60;;;13.70;99.90;;;;;;5007826;28;20109;-76
2021/09/05 07:07:29;;;;;;;19.63;12.52;;;13.80;99.90;;;;;;5010984;28;20030;-76
2021/09/05 07:09:54;;;;;;;19.08;12.82;;;13.80;99.90;;;;;;5018145;28;20018;-76
2021/09/05 07:12:20;;;;;;;23.08;12.35;;;13.90;99.90;;;;;;5018140;28;20033;-76
2021/09/05 07:14:45;;;;;;;18.90;11.07;;;14.00;99.90;;;;;;5014445;28;20030;-75
2021/09/05 07:17:11;;;;;;;22.30;13.20;;;14.00;99.90;;;;;;5007429;28;20032;-77
2021/09/05 07:19:37;;;;;;;19.73;11.88;;;14.10;99.90;;;;;;5015501;28;20029;-75
2021/09/05 07:22:02;;;;;;;21.00;13.05;;;14.10;99.90;;;;;;5014652;28;20026;-75
2021/09/05 07:24:28;;;;;;;26.20;13.13;;;14.20;99.90;;;;;;5008395;28;20481;-75
2021/09/05 07:26:54;;;;;;;24.27;13.65;;;14.20;99.90;;;;;;5006526;28;20034;-76
2021/09/05 07:29:19;;;;;;;19.92;12.55;;;14.30;99.90;;;;;;5006614;28;20041;-75
2021/09/05 07:31:45;;;;;;;22.33;12.95;;;14.30;99.90;;;;;;5003950;28;20034;-74
2021/09/05 07:34:11;;;;;;;22.05;13.05;;;14.30;99.90;;;;;;5005810;28;20485;-75
2021/09/05 07:36:37;;;;;;;29.67;14.32;;;14.40;99.90;;;;;;5008080;28;20041;-77
2021/09/05 07:39:04;;;;;;;30.00;13.75;;;14.50;99.90;;;;;;4998131;28;20037;-75
2021/09/05 07:41:30;;;;;;;20.40;12.20;;;14.50;99.90;;;;;;4999932;28;20045;-77
2021/09/05 07:43:55;;;;;;;25.80;13.05;;;14.60;99.90;;;;;;5005077;28;20545;-78
2021/09/05 07:46:21;;;;;;;18.15;12.10;;;14.70;99.90;;;;;;5002361;28;20102;-76
2021/09/05 07:48:47;;;;;;;21.75;12.63;;;14.70;99.90;;;;;;5003444;28;20867;-75
2021/09/05 07:51:12;;;;;;;18.23;12.48;;;14.80;99.90;;;;;;5007663;28;20069;-76
2021/09/05 07:53:38;;;;;;;22.40;12.25;;;14.90;99.90;;;;;;5007810;28;20217;-74
2021/09/05 07:56:04;;;;;;;23.08;13.90;;;14.90;99.90;;;;;;5001174;28;20017;-76
2021/09/05 07:58:29;;;;;;;23.45;13.43;;;15.00;99.90;;;;;;5006283;28;20100;-75
2021/09/05 08:00:55;;;;;;;20.67;13.45;;;15.10;99.90;;;;;;5003620;28;20034;-75
2021/09/05 08:03:21;;;;;;;20.00;12.75;;;15.10;99.90;;;;;;5007703;28;20028;-76
2021/09/05 08:05:47;;;;;;;27.02;12.85;;;15.20;99.90;;;;;;5007849;28;20064;-77
2021/09/05 08:08:13;;;;;;;24.70;12.55;;;15.30;99.90;;;;;;5003774;28;20027;-76
2021/09/05 08:10:39;;;;;;;24.77;12.80;;;15.40;99.90;;;;;;4996544;28;20027;-77
2021/09/05 08:13:04;;;;;;;18.02;13.07;;;15.40;99.90;;;;;;5001962;28;20084;-76
2021/09/05 08:15:31;;;;;;;20.77;11.50;;;15.50;99.90;;;;;;5001107;28;20101;-75
2021/09/05 08:17:56;;;;;;;18.20;11.68;;;15.60;99.90;;;;;;4997560;28;20034;-81
2021/09/05 08:20:22;;;;;;;17.13;11.20;;;15.70;99.90;;;;;;5000536;28;20467;-75
2021/09/05 08:22:48;;;;;;;23.98;11.23;;;15.90;99.90;;;;;;5005244;28;20382;-76
2021/09/05 08:25:14;;;;;;;21.77;11.15;;;15.90;99.90;;;;;;5001280;28;20014;-75
2021/09/05 08:27:39;;;;;;;19.65;10.77;;;15.90;99.90;;;;;;5000189;28;20033;-75
2021/09/05 08:30:05;;;;;;;16.83;10.90;;;16.00;99.90;;;;;;4999604;28;20027;-77
2021/09/05 08:32:31;;;;;;;17.10;11.20;;;16.10;99.90;;;;;;4998776;28;20065;-76
2021/09/05 08:34:56;;;;;;;19.45;11.05;;;16.20;99.90;;;;;;5002581;28;20104;-75
2021/09/05 08:37:22;;;;;;;20.65;10.10;;;16.30;99.90;;;;;;5000912;28;20381;-76
2021/09/05 08:39:48;;;;;;;21.42;10.00;;;16.30;99.90;;;;;;4998939;28;20071;-75
2021/09/05 08:42:15;;;;;;;21.70;10.77;;;16.40;99.90;;;;;;4996692;28;20677;-75
2021/09/05 08:44:40;;;;;;;14.23;9.98;;;16.50;99.90;;;;;;4995148;28;20030;-74
2021/09/05 08:47:08;;;;;;;18.40;10.88;;;16.50;99.90;;;;;;5004053;28;20032;-75
2021/09/05 08:49:36;;;;;;;13.25;9.63;;;16.70;99.90;;;;;;4999941;28;20049;-75
2021/09/05 08:52:03;;;;;;;21.17;11.15;;;16.70;99.90;;;;;;4996809;28;20034;-74
2021/09/05 08:54:29;;;;;;;16.10;10.48;;;16.80;99.90;;;;;;4996796;28;20025;-78
2021/09/05 08:56:55;;;;;;;15.68;10.13;;;16.90;99.90;;;;;;5006222;28;20088;-76
2021/09/05 08:59:21;;;;;;;15.40;9.93;;;16.90;99.90;;;;;;5003624;28;20018;-75
2021/09/05 09:01:54;;;;;;;16.88;9.90;;;17.00;99.90;;;;;;5001453;28;20030;-74
2021/09/05 09:04:23;;;;;;;13.73;10.20;;;17.10;99.90;;;;;;5002347;28;20046;-76
2021/09/05 09:06:49;;;;;;;15.00;10.25;;;17.30;99.90;;;;;;5001147;28;20037;-75
2021/09/05 09:09:15;;;;;;;18.70;10.05;;;17.30;99.90;;;;;;5001111;28;20027;-75
2021/09/05 09:11:53;;;;;;;17.35;10.27;;;17.30;99.90;;;;;;5005004;28;20124;-76
2021/09/05 09:14:22;;;;;;;21.40;9.95;;;17.40;99.90;;;;;;5002046;28;20391;-75
2021/09/05 09:16:48;;;;;;;13.88;10.48;;;17.50;99.90;;;;;;5006546;28;20013;-77
2021/09/05 09:19:27;;;;;;;15.75;10.35;;;17.50;99.90;;;;;;5004404;28;20471;-77
2021/09/05 09:21:54;;;;;;;18.10;8.95;;;17.50;99.90;;;;;;5005296;28;20396;-76
2021/09/05 09:24:22;;;;;;;22.08;9.18;;;17.60;99.90;;;;;;5005401;28;20113;-77
2021/09/05 09:27:05;;;;;;;13.48;9.68;;;17.70;99.90;;;;;;5008621;28;20481;-77
2021/09/05 09:29:33;;;;;;;18.60;10.25;;;17.70;99.90;;;;;;5006594;28;20044;-77
2021/09/05 09:32:07;;;;;;;21.30;9.65;;;17.80;99.90;;;;;;5006518;28;20034;-78
2021/09/05 09:34:46;;;;;;;14.88;8.88;;;17.90;99.90;;;;;;5001435;28;20027;-78
2021/09/05 09:37:13;;;;;;;21.02;9.95;;;18.00;99.90;;;;;;5001876;28;20710;-76
2021/09/05 09:39:44;;;;;;;12.40;9.50;;;18.00;99.90;;;;;;5007205;28;20378;-77
2021/09/05 09:42:29;;;;;;;18.30;10.02;;;18.10;99.90;;;;;;5004130;28;20595;-77
2021/09/05 09:44:55;;;;;;;15.15;9.57;;;18.20;99.90;;;;;;5002599;28;20038;-77
2021/09/05 09:47:21;;;;;;;17.05;9.70;;;18.30;99.90;;;;;;5008058;28;20022;-75
2021/09/05 09:49:50;;;;;;;14.88;10.13;;;18.30;99.90;;;;;;5006758;28;20042;-76
2021/09/05 09:52:17;;;;;;;14.15;9.85;;;18.40;99.90;;;;;;5004587;28;20113;-76
2021/09/05 09:54:45;;;;;;;17.17;10.25;;;18.40;99.90;;;;;;5006163;28;20029;-75
2021/09/05 09:57:11;;;;;;;15.35;10.25;;;18.50;99.90;;;;;;5007324;28;20089;-77
2021/09/05 09:59:37;;;;;;;17.40;10.13;;;18.50;99.90;;;;;;5006577;28;20105;-76
2021/09/05 10:02:03;;;;;;;16.67;9.48;;;18.60;99.90;;;;;;5008290;28;20029;-76
2021/09/05 10:04:31;;;;;;;19.92;9.57;;;18.60;99.90;;;;;;5010564;28;20026;-76
2021/09/05 10:06:57;;;;;;;18.15;10.30;;;18.70;99.90;;;;;;5011097;28;20445;-76
2021/09/05 10:09:24;;;;;;;18.05;9.73;;;18.70;99.90;;;;;;5009927;28;20537;-76
2021/09/05 10:11:52;;;;;;;22.27;10.98;;;18.80;99.90;;;;;;5011202;28;20041;-76
2021/09/05 10:14:21;;;;;;;13.55;9.90;;;18.90;99.90;;;;;;5012032;28;20075;-74
2021/09/05 10:16:47;;;;;;;19.08;9.95;;;18.90;99.90;;;;;;5011269;28;20030;-76
2021/09/05 10:19:14;;;;;;;17.80;10.00;;;18.90;99.90;;;;;;5007673;28;20026;-75
2021/09/05 10:21:40;;;;;;;14.10;9.45;;;18.90;99.90;;;;;;5003751;28;20035;-77
2021/09/05 10:24:14;;;;;;;14.55;9.35;;;19.00;99.90;;;;;;4997725;28;20038;-75
2021/09/05 10:26:58;;;;;;;17.17;9.88;;;19.00;99.90;;;;;;4999054;28;20037;-74
2021/09/05 10:29:27;;;;;;;19.83;9.68;;;19.10;99.90;;;;;;4998675;28;20026;-75
2021/09/05 10:31:52;;;;;;;18.00;10.77;;;19.20;99.90;;;;;;4999329;28;20041;-76
2021/09/05 10:34:35;;;;;;;17.27;10.90;;;19.20;99.90;;;;;;4996499;28;20022;-75
2021/09/05 10:37:10;;;;;;;13.50;9.68;;;19.20;99.90;;;;;;5003776;28;20038;-76
2021/09/05 10:39:36;;;;;;;15.05;9.73;;;19.30;99.90;;;;;;5010428;28;20014;-76
2021/09/05 10:42:02;;;;;;;12.65;9.75;;;19.40;99.90;;;;;;5016041;28;20375;-76
2021/09/05 10:44:29;;;;;;;16.73;10.00;;;19.50;99.90;;;;;;5018252;28;20025;-76
2021/09/05 10:46:57;;;;;;;14.57;9.15;;;19.50;99.90;;;;;;5018094;28;20347;-77
2021/09/05 10:49:40;;;;;;;15.18;9.10;;;19.60;99.90;;;;;;5015547;28;20088;-75
2021/09/05 10:52:06;;;;;;;13.68;8.98;;;19.60;99.90;;;;;;5014828;28;21425;-75
2021/09/05 10:54:32;;;;;;;13.50;8.57;;;19.80;99.90;;;;;;5012487;28;20057;-75
2021/09/05 10:56:59;;;;;;;15.57;9.02;;;19.70;99.90;;;;;;5016754;28;20078;-76
2021/09/05 10:59:26;;;;;;;17.95;8.45;;;19.90;99.90;;;;;;5016910;28;20026;-76
2021/09/05 11:01:52;;;;;;;14.82;8.45;;;19.90;99.90;;;;;;5011251;28;20018;-76
2021/09/05 11:04:21;;;;;;;13.93;8.13;;;20.00;99.90;;;;;;5013107;28;20493;-76
2021/09/05 11:07:06;;;;;;;11.65;8.52;;;20.10;99.90;;;;;;5014996;28;20049;-77
2021/09/05 11:09:32;;;;;;;10.75;8.85;;;20.20;99.90;;;;;;5010627;28;20367;-76
2021/09/05 11:12:22;;;;;;;16.30;8.50;;;20.30;99.90;;;;;;5003586;28;20022;-76
2021/09/05 11:14:52;;;;;;;9.88;7.78;;;20.30;99.90;;;;;;4998058;28;20033;-75
2021/09/05 11:17:31;;;;;;;9.67;7.73;;;20.30;99.90;;;;;;5002571;28;20391;-75
2021/09/05 11:20:04;;;;;;;13.90;8.13;;;20.40;99.90;;;;;;4997427;28;20371;-74
2021/09/05 11:22:35;;;;;;;10.48;7.97;;;20.40;99.90;;;;;;4999032;28;20057;-75
2021/09/05 11:25:09;;;;;;;;;;;20.50;99.90;;;;;;5008045;28;20022;-75
2021/09/05 11:27:37;;;;;;;12.82;8.27;;;20.60;99.90;;;;;;5002180;28;19909;-75
2021/09/05 11:30:05;;;;;;;13.52;7.40;;;20.70;99.90;;;;;;5000081;28;20109;-74
2021/09/05 11:32:31;;;;;;;13.60;9.95;;;20.70;99.90;;;;;;4997489;28;20697;-74
2021/09/05 11:34:57;;;;;;;15.02;7.60;;;20.70;99.90;;;;;;4998293;28;20034;-74
2021/09/05 11:37:31;;;;;;;14.57;8.38;;;20.70;99.90;;;;;;4999814;28;20041;-77
2021/09/05 11:40:03;;;;;;;9.45;7.90;;;20.80;99.90;;;;;;4998701;28;20023;-76
2021/09/05 11:42:28;;;;;;;12.50;8.40;;;20.90;99.90;;;;;;4998964;28;20025;-77
2021/09/05 11:45:01;;;;;;;11.63;8.02;;;21.00;99.90;;;;;;5001638;28;20023;-75
2021/09/05 11:47:27;;;;;;;9.40;7.57;;;21.00;99.90;;;;;;5013318;28;20022;-76
2021/09/05 11:49:55;;;;;;;11.57;7.85;;;21.00;99.90;;;;;;4998657;28;20524;-75
2021/09/05 11:52:22;;;;;;;10.63;8.02;;;21.00;99.90;;;;;;5001579;28;20038;-75
2021/09/05 11:55:08;;;;;;;9.40;7.68;;;21.10;99.90;;;;;;5000045;28;20029;-75
2021/09/05 11:57:36;;;;;;;20.70;8.57;;;21.20;99.90;;;;;;4998146;28;20040;-75
2021/09/05 12:00:05;;;;;;;12.80;7.68;;;21.20;99.90;;;;;;5001435;28;20014;-76
2021/09/05 12:02:36;;;;;;;9.10;7.33;;;21.30;99.90;;;;;;5000420;28;20025;-75
2021/09/05 12:05:05;;;;;;;7.38;6.45;;;21.30;99.90;;;;;;5002718;28;20025;-75
2021/09/05 12:07:35;;;;;;;12.85;7.95;;;21.50;99.80;;;;;;5001798;28;20153;-75
2021/09/05 12:10:13;;;;;;;11.32;7.90;;;21.50;99.70;;;;;;4999129;28;20545;-75
2021/09/05 12:12:41;;;;;;;10.70;8.05;;;21.50;99.80;;;;;;5006479;28;20176;-74
2021/09/05 12:15:13;;;;;;;9.32;6.85;;;21.50;99.50;;;;;;4999211;28;20149;-75
2021/09/05 12:17:43;;;;;;;11.75;7.63;;;21.50;99.60;;;;;;5004888;28;20525;-76
2021/09/05 12:20:09;;;;;;;9.23;6.95;;;21.60;99.10;;;;;;4995359;28;20019;-75
2021/09/05 12:22:43;;;;;;;13.57;8.05;;;21.70;99.00;;;;;;4998097;28;20415;-74
2021/09/05 12:25:19;;;;;;;8.15;6.43;;;21.80;99.30;;;;;;4996940;28;20029;-76
2021/09/05 12:28:04;;;;;;;12.95;7.93;;;21.90;99.00;;;;;;4995568;28;20113;-76
2021/09/05 12:30:49;;;;;;;8.20;7.40;;;22.00;98.80;;;;;;4996192;28;20355;-76
2021/09/05 12:33:18;;;;;;;10.27;7.03;;;22.10;98.20;;;;;;4995047;28;20364;-76